createdAt,value
2019-04-10T00:00:10.979Z,98190.19
2019-04-10T00:02:21.700Z,98192.17
2019-04-10T00:04:29.751Z,98184.69
2019-04-10T00:06:37.725Z,98185.61
2019-04-10T00:08:46.636Z,98185.81
2019-04-10T00:10:54.718Z,98184.05
2019-04-10T00:13:02.502Z,98191.11
2019-04-10T00:15:10.272Z,98181.45
2019-04-10T00:17:18.603Z,98183.73
2019-04-10T00:19:26.720Z,98184.95
2019-04-10T00:21:35.521Z,98189.13
2019-04-10T00:23:43.679Z,98193.11
2019-04-10T00:25:51.697Z,98180.80
2019-04-10T00:27:59.480Z,98196.08
2019-04-10T00:30:09.102Z,98184.84
2019-04-10T00:32:17.064Z,98186.53
2019-04-10T00:34:25.418Z,98198.70
2019-04-10T00:36:33.318Z,98186.70
2019-04-10T00:38:42.255Z,98184.69
2019-04-10T00:40:50.174Z,98186.63
2019-04-10T00:42:58.920Z,98183.91
2019-04-10T00:45:07.917Z,98182.45
2019-04-10T00:47:15.797Z,98188.22
2019-04-10T00:49:23.940Z,98216.69
2019-04-10T00:51:31.775Z,98196.94
2019-04-10T00:53:41.255Z,98183.31
2019-04-10T00:55:50.209Z,98193.51
2019-04-10T00:57:58.217Z,98198.88
2019-04-10T01:00:09.222Z,98195.97
2019-04-10T01:02:16.893Z,98191.14
2019-04-10T01:04:26.607Z,98188.63
2019-04-10T01:06:34.792Z,98197.31
2019-04-10T01:08:44.617Z,98183.35
2019-04-10T01:10:52.630Z,98187.03
2019-04-10T01:13:00.677Z,98208.12
2019-04-10T01:15:09.964Z,98194.83
2019-04-10T01:17:17.783Z,98193.42
2019-04-10T01:19:25.935Z,98200.48
2019-04-10T01:21:34.693Z,98188.43
2019-04-10T01:23:42.586Z,98193.99
2019-04-10T01:25:50.582Z,98196.00
2019-04-10T01:27:58.500Z,98191.35
2019-04-10T01:30:08.711Z,98195.86
2019-04-10T01:32:17.421Z,98188.53
2019-04-10T01:34:25.444Z,98190.80
2019-04-10T01:36:33.396Z,98200.56
2019-04-10T01:38:41.878Z,98191.76
2019-04-10T01:40:51.078Z,98204.73
2019-04-10T01:43:06.634Z,98198.27
2019-04-10T01:45:09.278Z,98188.87
2019-04-10T01:47:17.260Z,98191.91
2019-04-10T01:49:26.506Z,98193.30
2019-04-10T01:51:35.362Z,98192.11
2019-04-10T01:53:44.179Z,98189.14
2019-04-10T01:55:52.025Z,98184.30
2019-04-10T01:58:01.491Z,98187.07
2019-04-10T02:00:13.215Z,98190.14
2019-04-10T02:02:35.759Z,98201.41
2019-04-10T02:04:43.841Z,98193.51
2019-04-10T02:06:53.714Z,98196.37
2019-04-10T02:09:02.546Z,98211.55
2019-04-10T02:11:11.325Z,98199.83
2019-04-10T02:13:19.195Z,98191.91
2019-04-10T02:15:28.225Z,98196.56
2019-04-10T02:17:36.854Z,98206.73
2019-04-10T02:19:44.686Z,98221.17
2019-04-10T02:21:52.402Z,98207.83
2019-04-10T02:24:00.901Z,98206.11
2019-04-10T02:26:09.461Z,98209.46
2019-04-10T02:28:17.216Z,98206.42
2019-04-10T02:30:26.176Z,98203.72
2019-04-10T02:32:34.585Z,98206.17
2019-04-10T02:34:43.782Z,98205.29
2019-04-10T02:36:55.120Z,98213.53
2019-04-10T02:39:19.070Z,98207.14
2019-04-10T02:41:14.937Z,98209.95
2019-04-10T02:43:23.296Z,98201.80
2019-04-10T02:45:32.545Z,98203.44
2019-04-10T02:47:41.233Z,98200.41
2019-04-10T02:49:49.338Z,98205.33
2019-04-10T02:51:57.131Z,98215.86
2019-04-10T02:54:05.599Z,98213.05
2019-04-10T02:56:13.743Z,98217.34
2019-04-10T02:58:22.264Z,98222.78
2019-04-10T03:00:30.454Z,98210.05
2019-04-10T03:02:39.208Z,98225.17
2019-04-10T03:04:49.097Z,98217.96
2019-04-10T03:06:57.620Z,98234.98
2019-04-10T03:09:28.087Z,98214.59
2019-04-10T03:11:20.066Z,98223.57
2019-04-10T03:13:29.480Z,98216.09
2019-04-10T03:15:38.811Z,98219.08
2019-04-10T03:17:48.250Z,98223.33
2019-04-10T03:19:56.157Z,98228.80
2019-04-10T03:22:03.951Z,98225.16
2019-04-10T03:24:11.880Z,98235.70
2019-04-10T03:26:19.785Z,98224.50
2019-04-10T03:28:27.857Z,98218.19
2019-04-10T03:30:36.961Z,98225.52
2019-04-10T03:32:51.564Z,98228.98
2019-04-10T03:34:56.680Z,98220.56
2019-04-10T03:37:04.573Z,98226.41
2019-04-10T03:39:13.242Z,98227.30
2019-04-10T03:41:22.226Z,98221.27
2019-04-10T03:43:30.100Z,98238.17
2019-04-10T03:45:39.035Z,98248.84
2019-04-10T03:47:47.393Z,98237.38
2019-04-10T03:49:55.280Z,98230.69
2019-04-10T03:52:03.190Z,98227.13
2019-04-10T03:54:13.063Z,98231.63
2019-04-10T03:56:21.374Z,98241.64
2019-04-10T03:58:29.157Z,98245.02
2019-04-10T04:00:36.837Z,98244.41
2019-04-10T04:02:44.604Z,98240.70
2019-04-10T04:04:52.443Z,98238.59
2019-04-10T04:07:01.548Z,98246.31
2019-04-10T04:09:12.009Z,98244.40
2019-04-10T04:11:19.775Z,98253.95
2019-04-10T04:13:27.919Z,98252.69
2019-04-10T04:15:35.894Z,98253.81
2019-04-10T04:17:44.410Z,98260.88
2019-04-10T04:19:52.599Z,98253.25
2019-04-10T04:22:00.651Z,98252.32
2019-04-10T04:24:09.538Z,98261.35
2019-04-10T04:26:17.376Z,98246.31
2019-04-10T04:28:25.738Z,98258.53
2019-04-10T04:30:34.099Z,98265.65
2019-04-10T04:32:42.162Z,98267.05
2019-04-10T04:34:49.979Z,98274.77
2019-04-10T04:36:58.139Z,98282.02
2019-04-10T04:39:17.956Z,98281.55
2019-04-10T04:41:18.234Z,98281.52
2019-04-10T04:43:26.030Z,98278.52
2019-04-10T04:45:33.811Z,98278.37
2019-04-10T04:47:41.503Z,98274.67
2019-04-10T04:49:50.249Z,98284.80
2019-04-10T04:51:58.224Z,98291.13
2019-04-10T04:54:06.684Z,98288.11
2019-04-10T04:56:15.666Z,98286.11
2019-04-10T04:58:26.330Z,98299.13
2019-04-10T05:00:34.222Z,98289.40
2019-04-10T05:02:42.682Z,98292.67
2019-04-10T05:04:51.441Z,98300.95
2019-04-10T05:06:59.921Z,98293.25
2019-04-10T05:09:09.148Z,98294.39
2019-04-10T05:11:16.813Z,98290.64
2019-04-10T05:13:24.540Z,98295.14
2019-04-10T05:15:33.246Z,98297.88
2019-04-10T05:17:41.792Z,98305.19
2019-04-10T05:19:50.292Z,98296.78
2019-04-10T05:21:59.451Z,98298.42
2019-04-10T05:24:07.399Z,98294.09
2019-04-10T05:26:15.225Z,98304.44
2019-04-10T05:28:24.217Z,98304.39
2019-04-10T05:30:33.410Z,98308.13
2019-04-10T05:32:41.842Z,98305.55
2019-04-10T05:34:50.853Z,98308.59
2019-04-10T05:36:58.849Z,98312.52
2019-04-10T05:39:08.810Z,98316.55
2019-04-10T05:41:17.534Z,98316.83
2019-04-10T05:43:26.066Z,98311.97
2019-04-10T05:45:33.965Z,98307.86
2019-04-10T05:47:42.762Z,98329.02
2019-04-10T05:49:50.617Z,98322.80
2019-04-10T05:51:58.397Z,98329.80
2019-04-10T05:54:06.548Z,98332.14
2019-04-10T05:56:16.095Z,98341.05
2019-04-10T05:58:24.033Z,98346.34
2019-04-10T06:00:32.676Z,98345.64
2019-04-10T06:02:41.874Z,98352.30
2019-04-10T06:04:49.784Z,98345.49
2019-04-10T06:06:58.692Z,98352.94
2019-04-10T06:09:09.466Z,98356.99
2019-04-10T06:11:17.227Z,98351.34
2019-04-10T06:13:25.668Z,98355.58
2019-04-10T06:15:33.475Z,98359.63
2019-04-10T06:17:42.739Z,98353.45
2019-04-10T06:19:51.098Z,98357.10
2019-04-10T06:21:58.977Z,98353.25
2019-04-10T06:24:07.891Z,98352.34
2019-04-10T06:26:17.033Z,98348.28
2019-04-10T06:28:26.211Z,98357.41
2019-04-10T06:30:34.353Z,98354.87
2019-04-10T06:32:43.250Z,98354.30
2019-04-10T06:34:51.499Z,98360.63
2019-04-10T06:36:59.828Z,98353.03
2019-04-10T06:39:08.898Z,98353.71
2019-04-10T06:41:17.782Z,98352.75
2019-04-10T06:43:26.605Z,98359.52
2019-04-10T06:45:35.742Z,98355.35
2019-04-10T06:47:44.523Z,98361.31
2019-04-10T06:49:52.618Z,98355.98
2019-04-10T06:52:01.790Z,98360.58
2019-04-10T06:54:11.737Z,98354.19
2019-04-10T06:56:20.849Z,98365.06
2019-04-10T06:58:29.942Z,98364.23
2019-04-10T07:00:38.961Z,98360.63
2019-04-10T07:02:46.969Z,98366.30
2019-04-10T07:04:56.587Z,98366.66
2019-04-10T07:07:09.357Z,98371.88
2019-04-10T07:09:21.257Z,98367.95
2019-04-10T07:11:32.240Z,98373.59
2019-04-10T07:13:41.447Z,98369.25
2019-04-10T07:15:49.823Z,98366.23
2019-04-10T07:17:58.802Z,98376.86
2019-04-10T07:20:09.515Z,98378.45
2019-04-10T07:22:17.732Z,98372.77
2019-04-10T07:24:25.645Z,98374.70
2019-04-10T07:26:40.289Z,98374.97
2019-04-10T07:28:44.918Z,98370.38
2019-04-10T07:30:57.816Z,98379.09
2019-04-10T07:33:03.550Z,98379.63
2019-04-10T07:35:15.085Z,98376.38
2019-04-10T07:37:23.043Z,98376.19
2019-04-10T07:39:33.291Z,98368.95
2019-04-10T07:41:40.167Z,98380.00
2019-04-10T07:43:53.880Z,98378.12
2019-04-10T07:45:58.547Z,98379.39
2019-04-10T07:48:06.620Z,98377.57
2019-04-10T07:50:14.923Z,98378.90
2019-04-10T07:52:23.948Z,98381.32
2019-04-10T07:54:32.937Z,98377.53
2019-04-10T07:56:41.776Z,98379.23
2019-04-10T07:58:50.174Z,98376.75
2019-04-10T08:00:58.880Z,98375.08
2019-04-10T08:03:06.740Z,98373.09
2019-04-10T08:05:16.664Z,98377.63
2019-04-10T08:07:30.378Z,98378.34
2019-04-10T08:09:35.612Z,98381.66
2019-04-10T08:11:44.691Z,98376.73
2019-04-10T08:13:53.267Z,98371.98
2019-04-10T08:16:02.872Z,98375.17
2019-04-10T08:18:10.900Z,98373.16
2019-04-10T08:20:21.872Z,98371.39
2019-04-10T08:22:30.706Z,98377.91
2019-04-10T08:24:38.681Z,98378.73
2019-04-10T08:26:47.219Z,98382.36
2019-04-10T08:28:55.157Z,98388.62
2019-04-10T08:31:02.928Z,98387.08
2019-04-10T08:33:11.887Z,98390.27
2019-04-10T08:35:20.797Z,98386.75
2019-04-10T08:37:28.627Z,98385.73
2019-04-10T08:39:42.606Z,98397.17
2019-04-10T08:41:46.076Z,98390.60
2019-04-10T08:43:54.466Z,98391.98
2019-04-10T08:46:03.428Z,98396.45
2019-04-10T08:48:11.249Z,98396.97
2019-04-10T08:50:19.717Z,98399.86
2019-04-10T08:52:28.351Z,98389.86
2019-04-10T08:54:36.637Z,98389.34
2019-04-10T08:56:44.927Z,98401.44
2019-04-10T08:58:52.683Z,98396.48
2019-04-10T09:01:00.799Z,98404.04
2019-04-10T09:03:08.894Z,98391.81
2019-04-10T09:05:17.849Z,98396.48
2019-04-10T09:07:26.351Z,98395.46
2019-04-10T09:09:34.187Z,98391.43
2019-04-10T09:11:42.993Z,98390.16
2019-04-10T09:13:52.759Z,98393.02
2019-04-10T09:16:00.714Z,98384.80
2019-04-10T09:18:10.049Z,98388.59
2019-04-10T09:20:18.412Z,98387.55
2019-04-10T09:22:26.257Z,98383.33
2019-04-10T09:24:34.177Z,98379.20
2019-04-10T09:26:42.005Z,98387.61
2019-04-10T09:28:50.693Z,98384.78
2019-04-10T09:30:59.499Z,98391.41
2019-04-10T09:33:20.865Z,98390.86
2019-04-10T09:35:22.580Z,98381.30
2019-04-10T09:37:31.271Z,98393.02
2019-04-10T09:39:41.278Z,98378.50
2019-04-10T09:41:50.148Z,98383.91
2019-04-10T09:43:58.248Z,98384.63
2019-04-10T09:46:06.498Z,98378.02
2019-04-10T09:48:14.231Z,98374.41
2019-04-10T09:50:22.014Z,98365.85
2019-04-10T09:52:32.065Z,98368.52
2019-04-10T09:54:42.536Z,98365.64
2019-04-10T09:56:50.627Z,98365.70
2019-04-10T09:58:58.811Z,98367.07
2019-04-10T10:01:13.707Z,98367.66
2019-04-10T10:03:21.223Z,98365.11
2019-04-10T10:05:28.955Z,98364.23
2019-04-10T10:07:38.999Z,98359.80
2019-04-10T10:09:49.716Z,98360.83
2019-04-10T10:11:58.934Z,98358.24
2019-04-10T10:14:06.892Z,98352.66
2019-04-10T10:16:14.993Z,98354.86
2019-04-10T10:18:23.482Z,98356.05
2019-04-10T10:20:32.141Z,98343.33
2019-04-10T10:22:40.956Z,98351.47
2019-04-10T10:24:49.133Z,98359.00
2019-04-10T10:26:57.763Z,98362.31
2019-04-10T10:29:05.801Z,98354.66
2019-04-10T10:31:13.757Z,98351.58
2019-04-10T10:33:21.667Z,98353.53
2019-04-10T10:35:29.965Z,98346.97
2019-04-10T10:37:38.827Z,98345.27
2019-04-10T10:39:47.271Z,98349.00
2019-04-10T10:41:55.143Z,98352.47
2019-04-10T10:44:03.053Z,98348.12
2019-04-10T10:46:11.388Z,98351.78
2019-04-10T10:48:19.858Z,98347.44
2019-04-10T10:50:28.924Z,98345.72
2019-04-10T10:52:37.905Z,98346.99
2019-04-10T10:54:45.688Z,98336.12
2019-04-10T10:56:53.519Z,98352.28
2019-04-10T10:59:01.374Z,98346.90
2019-04-10T11:01:09.156Z,98344.40
2019-04-10T11:03:18.176Z,98339.31
2019-04-10T11:05:26.008Z,98337.63
2019-04-10T11:07:35.132Z,98341.06
2019-04-10T11:09:44.214Z,98339.86
2019-04-10T11:11:53.629Z,98342.63
2019-04-10T11:14:03.516Z,98342.70
2019-04-10T11:16:13.051Z,98344.09
2019-04-10T11:18:22.150Z,98348.23
2019-04-10T11:20:30.054Z,98349.38
2019-04-10T11:22:37.962Z,98348.55
2019-04-10T11:24:46.873Z,98357.30
2019-04-10T11:26:55.105Z,98343.06
2019-04-10T11:29:03.729Z,98345.73
2019-04-10T11:31:11.560Z,98333.63
2019-04-10T11:33:19.368Z,98341.40
2019-04-10T11:35:27.180Z,98340.78
2019-04-10T11:37:43.440Z,98339.77
2019-04-10T11:39:47.549Z,98338.88
2019-04-10T11:41:57.719Z,98338.78
2019-04-10T11:44:09.109Z,98331.56
2019-04-10T11:46:20.089Z,98330.94
2019-04-10T11:48:30.763Z,98335.23
2019-04-10T11:50:39.524Z,98332.23
2019-04-10T11:55:08.801Z,98329.39
2019-04-10T11:57:12.506Z,98330.07
2019-04-10T11:59:24.129Z,98337.34
2019-04-10T12:01:36.891Z,98330.14
2019-04-10T12:03:49.058Z,98337.26
2019-04-10T12:05:57.672Z,98331.56
2019-04-10T12:08:32.027Z,98331.51
2019-04-10T12:12:25.875Z,98329.97
2019-04-10T12:14:35.403Z,98338.96
2019-04-10T12:16:45.247Z,98333.58
2019-04-10T12:18:53.274Z,98339.32
2019-04-10T12:21:01.905Z,98335.18
2019-04-10T12:23:10.465Z,98338.34
2019-04-10T12:25:18.643Z,98344.55
2019-04-10T12:27:27.313Z,98337.44
2019-04-10T12:29:35.295Z,98335.45
2019-04-10T12:31:43.989Z,98330.16
2019-04-10T12:33:52.788Z,98338.97
2019-04-10T12:36:00.616Z,98343.69
2019-04-10T12:38:10.787Z,98328.17
2019-04-10T12:40:19.411Z,98332.22
2019-04-10T12:42:28.143Z,98326.44
2019-04-10T12:44:36.064Z,98341.14
2019-04-10T12:46:43.982Z,98342.82
2019-04-10T12:48:52.702Z,98344.53
2019-04-10T12:51:01.375Z,98342.59
2019-04-10T12:53:09.450Z,98343.53
2019-04-10T12:55:18.590Z,98331.33
2019-04-10T12:57:26.702Z,98344.27
2019-04-10T12:59:35.324Z,98337.83
2019-04-10T13:01:43.257Z,98331.61
2019-04-10T13:03:51.561Z,98333.81
2019-04-10T13:05:59.801Z,98330.25
2019-04-10T13:08:18.808Z,98320.70
2019-04-10T13:10:18.355Z,98328.44
2019-04-10T13:12:27.321Z,98326.72
2019-04-10T13:14:37.253Z,98326.37
2019-04-10T13:16:46.169Z,98325.56
2019-04-10T13:18:54.438Z,98326.02
2019-04-10T13:21:02.249Z,98322.75
2019-04-10T13:23:10.842Z,98329.84
2019-04-10T13:25:18.815Z,98324.34
2019-04-10T13:27:26.499Z,98330.30
2019-04-10T13:29:34.379Z,98325.13
2019-04-10T13:31:42.572Z,98331.87
2019-04-10T13:33:51.049Z,98328.66
2019-04-10T13:35:59.547Z,98328.26
2019-04-10T13:38:08.704Z,98329.92
2019-04-10T13:40:16.829Z,98333.25
2019-04-10T13:42:25.123Z,98335.97
2019-04-10T13:44:33.177Z,98339.07
2019-04-10T13:46:41.140Z,98328.03
2019-04-10T13:48:49.357Z,98332.80
2019-04-10T13:50:57.370Z,98331.17
2019-04-10T13:53:05.838Z,98329.00
2019-04-10T13:55:14.963Z,98325.55
2019-04-10T13:57:22.874Z,98333.72
2019-04-10T13:59:31.208Z,98329.63
2019-04-10T14:01:39.854Z,98332.14
2019-04-10T14:03:48.606Z,98331.04
2019-04-10T14:05:57.154Z,98338.13
2019-04-10T14:08:06.226Z,98332.81
2019-04-10T14:10:18.756Z,98334.37
2019-04-10T14:12:27.089Z,98329.67
2019-04-10T14:14:35.167Z,98339.14
2019-04-10T14:16:44.618Z,98340.84
2019-04-10T14:18:53.595Z,98332.56
2019-04-10T14:21:03.316Z,98337.95
2019-04-10T14:23:12.615Z,98326.98
2019-04-10T14:25:37.914Z,98327.41
2019-04-10T14:27:46.666Z,98330.24
2019-04-10T14:29:54.656Z,98326.31
2019-04-10T14:32:07.039Z,98325.11
2019-04-10T14:34:15.701Z,98321.85
2019-04-10T14:36:24.745Z,98316.72
2019-04-10T14:38:34.703Z,98328.05
2019-04-10T14:40:43.147Z,98331.87
2019-04-10T14:42:51.431Z,98324.41
2019-04-10T14:44:59.388Z,98325.86
2019-04-10T14:47:08.567Z,98324.17
2019-04-10T14:49:16.821Z,98327.60
2019-04-10T14:51:24.747Z,98328.21
2019-04-10T14:53:33.600Z,98325.97
2019-04-10T14:55:41.827Z,98330.03
2019-04-10T14:57:50.834Z,98326.72
2019-04-10T14:59:58.751Z,98331.45
2019-04-10T15:02:08.480Z,98324.45
2019-04-10T15:04:17.274Z,98338.50
2019-04-10T15:06:25.780Z,98334.08
2019-04-10T15:08:35.606Z,98340.50
2019-04-10T15:10:43.490Z,98332.05
2019-04-10T15:12:51.286Z,98343.77
2019-04-10T15:14:59.573Z,98346.91
2019-04-10T15:17:09.462Z,98341.92
2019-04-10T15:19:18.496Z,98336.36
2019-04-10T15:21:27.047Z,98343.77
2019-04-10T15:23:35.851Z,98343.41
2019-04-10T15:25:43.822Z,98341.53
2019-04-10T15:27:51.734Z,98345.69
2019-04-10T15:29:59.563Z,98349.80
2019-04-10T15:32:08.473Z,98343.05
2019-04-10T15:34:16.278Z,98351.98
2019-04-10T15:36:25.127Z,98349.16
2019-04-10T15:38:34.562Z,98353.25
2019-04-10T15:40:42.605Z,98347.02
2019-04-10T15:42:50.381Z,98348.73
2019-04-10T15:44:58.719Z,98350.09
2019-04-10T15:47:13.392Z,98345.45
2019-04-10T15:49:17.205Z,98343.41
2019-04-10T15:51:25.294Z,98346.20
2019-04-10T15:53:33.088Z,98347.39
2019-04-10T15:55:40.941Z,98353.70
2019-04-10T15:57:56.131Z,98351.83
2019-04-10T16:00:03.180Z,98349.11
2019-04-10T16:02:13.231Z,98349.64
2019-04-10T16:04:23.275Z,98357.52
2019-04-10T16:06:31.407Z,98356.22
2019-04-10T16:08:40.593Z,98358.26
2019-04-10T16:10:55.133Z,98350.94
2019-04-10T16:13:10.891Z,98352.66
2019-04-10T16:15:19.338Z,98350.88
2019-04-10T16:17:39.919Z,98348.48
2019-04-10T16:19:59.752Z,98348.08
2019-04-10T16:22:09.359Z,98352.67
2019-04-10T16:24:22.874Z,98355.56
2019-04-10T16:26:32.169Z,98359.90
2019-04-10T16:28:39.966Z,98359.46
2019-04-10T16:30:48.640Z,98356.75
2019-04-10T16:32:56.626Z,98356.75
2019-04-10T16:35:07.364Z,98362.16
2019-04-10T16:37:16.729Z,98362.68
2019-04-10T16:39:25.678Z,98370.73
2019-04-10T16:41:35.456Z,98360.48
2019-04-10T16:43:44.457Z,98364.36
2019-04-10T16:45:53.024Z,98363.45
2019-04-10T16:48:00.948Z,98364.41
2019-04-10T16:50:09.530Z,98365.86
2019-04-10T16:52:17.332Z,98361.30
2019-04-10T16:54:25.184Z,98368.52
2019-04-10T16:56:33.869Z,98368.97
2019-04-10T16:58:42.814Z,98365.97
2019-04-10T17:00:50.727Z,98363.80
2019-04-10T17:02:59.419Z,98369.24
2019-04-10T17:05:08.622Z,98369.86
2019-04-10T17:07:16.917Z,98366.77
2019-04-10T17:09:26.908Z,98369.27
2019-04-10T17:11:34.787Z,98372.48
2019-04-10T17:13:42.632Z,98374.70
2019-04-10T17:15:51.786Z,98379.30
2019-04-10T17:18:01.032Z,98379.95
2019-04-10T17:20:10.195Z,98378.38
2019-04-10T17:22:30.802Z,98378.31
2019-04-10T17:24:27.493Z,98381.92
2019-04-10T17:26:35.426Z,98382.00
2019-04-10T17:28:43.240Z,98384.34
2019-04-10T17:30:51.890Z,98381.42
2019-04-10T17:33:00.638Z,98382.88
2019-04-10T17:35:11.549Z,98382.48
2019-04-10T17:37:19.379Z,98399.67
2019-04-10T17:39:27.298Z,98406.45
2019-04-10T17:41:35.472Z,98400.08
2019-04-10T17:43:43.488Z,98407.66
2019-04-10T17:45:53.087Z,98407.42
2019-04-10T17:48:01.137Z,98412.38
2019-04-10T17:50:11.890Z,98416.34
2019-04-10T17:52:20.895Z,98430.13
2019-04-10T17:54:29.822Z,98428.34
2019-04-10T17:56:38.306Z,98429.80
2019-04-10T17:58:46.040Z,98426.34
2019-04-10T18:00:55.698Z,98434.39
2019-04-10T18:03:03.701Z,98435.62
2019-04-10T18:05:12.649Z,98436.02
2019-04-10T18:07:21.752Z,98440.80
2019-04-10T18:09:30.590Z,98452.93
2019-04-10T18:11:39.516Z,98451.47
2019-04-10T18:13:47.365Z,98450.70
2019-04-10T18:15:55.857Z,98453.70
2019-04-10T18:18:05.743Z,98455.48
2019-04-10T18:20:13.617Z,98455.87
2019-04-10T18:22:22.644Z,98460.44
2019-04-10T18:24:30.460Z,98455.68
2019-04-10T18:26:39.436Z,98452.94
2019-04-10T18:28:47.250Z,98457.62
2019-04-10T18:30:55.030Z,98464.10
2019-04-10T18:33:03.834Z,98457.52
2019-04-10T18:35:12.357Z,98474.84
2019-04-10T18:37:23.727Z,98470.39
2019-04-10T18:39:30.440Z,98465.75
2019-04-10T18:41:38.297Z,98476.91
2019-04-10T18:43:46.643Z,98477.47
2019-04-10T18:46:06.132Z,98475.70
2019-04-10T18:48:06.223Z,98476.08
2019-04-10T18:50:14.549Z,98474.25
2019-04-10T18:52:23.376Z,98477.72
2019-04-10T18:54:31.901Z,98478.13
2019-04-10T18:56:40.961Z,98481.20
2019-04-10T18:59:02.795Z,98486.41
2019-04-10T19:01:14.238Z,98483.09
2019-04-10T19:03:27.662Z,98479.09
2019-04-10T19:05:40.336Z,98477.41
2019-04-10T19:07:48.306Z,98475.18
2019-04-10T19:09:56.646Z,98480.17
2019-04-10T19:12:04.739Z,98479.22
2019-04-10T19:14:12.676Z,98484.23
2019-04-10T19:16:23.436Z,98483.59
2019-04-10T19:18:32.134Z,98476.72
2019-04-10T19:20:40.641Z,98484.83
2019-04-10T19:22:48.708Z,98475.55
2019-04-10T19:24:56.724Z,98479.45
2019-04-10T19:27:05.058Z,98480.30
2019-04-10T19:29:15.005Z,98482.73
2019-04-10T19:31:24.800Z,98483.45
2019-04-10T19:33:33.209Z,98491.42
2019-04-10T19:35:41.406Z,98484.13
2019-04-10T19:37:51.300Z,98487.89
2019-04-10T19:39:58.902Z,98486.31
2019-04-10T19:42:06.988Z,98488.70
2019-04-10T19:44:15.058Z,98491.53
2019-04-10T19:46:23.848Z,98490.34
2019-04-10T19:48:33.022Z,98502.05
2019-04-10T19:50:41.541Z,98495.12
2019-04-10T19:52:49.286Z,98507.14
2019-04-10T19:54:58.050Z,98494.66
2019-04-10T19:57:06.861Z,98496.46
2019-04-10T19:59:14.876Z,98504.46
2019-04-10T20:01:24.520Z,98505.52
2019-04-10T20:03:32.284Z,98498.66
2019-04-10T20:05:41.397Z,98510.95
2019-04-10T20:07:49.424Z,98505.98
2019-04-10T20:09:57.361Z,98512.38
2019-04-10T20:12:06.448Z,98513.99
2019-04-10T20:14:16.783Z,98516.16
2019-04-10T20:16:24.896Z,98509.74
2019-04-10T20:18:34.971Z,98515.02
2019-04-10T20:20:43.715Z,98513.16
2019-04-10T20:22:51.637Z,98513.19
2019-04-10T20:24:59.810Z,98513.61
2019-04-10T20:27:07.790Z,98517.22
2019-04-10T20:29:15.726Z,98525.38
2019-04-10T20:31:25.561Z,98522.00
2019-04-10T20:33:34.574Z,98532.44
2019-04-10T20:35:42.586Z,98517.08
2019-04-10T20:37:51.227Z,98519.70
2019-04-10T20:39:59.250Z,98513.80
2019-04-10T20:42:07.773Z,98511.17
2019-04-10T20:44:16.649Z,98511.25
2019-04-10T20:46:24.378Z,98518.52
2019-04-10T20:48:32.816Z,98511.81
2019-04-10T20:50:41.730Z,98516.72
2019-04-10T20:52:49.645Z,98517.16
2019-04-10T20:54:59.335Z,98521.08
2019-04-10T20:57:08.452Z,98522.36
2019-04-10T20:59:16.130Z,98521.86
2019-04-10T21:01:25.132Z,98525.36
2019-04-10T21:03:33.833Z,98527.44
2019-04-10T21:05:42.450Z,98526.74
2019-04-10T21:07:50.320Z,98531.85
2019-04-10T21:09:58.761Z,98540.49
2019-04-10T21:12:10.480Z,98534.75
2019-04-10T21:14:15.931Z,98536.14
2019-04-10T21:16:23.756Z,98537.36
2019-04-10T21:18:31.534Z,98549.20
2019-04-10T21:20:40.769Z,98540.27
2019-04-10T21:22:49.349Z,98563.11
2019-04-10T21:24:58.169Z,98545.76
2019-04-10T21:27:06.237Z,98561.77
2019-04-10T21:29:18.622Z,98547.28
2019-04-10T21:31:26.082Z,98554.82
2019-04-10T21:33:49.134Z,98561.58
2019-04-10T21:35:57.515Z,98557.66
2019-04-10T21:38:05.454Z,98554.63
2019-04-10T21:40:14.480Z,98559.17
2019-04-10T21:42:26.495Z,98568.55
2019-04-10T21:44:33.151Z,98569.25
2019-04-10T21:46:41.015Z,98557.50
2019-04-10T21:48:48.955Z,98566.58
2019-04-10T21:50:56.765Z,98561.54
2019-04-10T21:53:04.514Z,98580.64
2019-04-10T21:55:12.902Z,98566.76
2019-04-10T21:57:20.782Z,98573.33
2019-04-10T21:59:28.995Z,98576.91
2019-04-10T22:01:38.172Z,98581.67
2019-04-10T22:03:46.019Z,98579.98
2019-04-10T22:06:01.730Z,98575.33
2019-04-10T22:08:11.175Z,98572.79
2019-04-10T22:10:32.660Z,98571.58
2019-04-10T22:12:45.418Z,98571.91
2019-04-10T22:14:50.297Z,98577.41
2019-04-10T22:16:58.382Z,98571.01
2019-04-10T22:19:06.859Z,98578.50
2019-04-10T22:21:14.940Z,98581.20
2019-04-10T22:23:23.084Z,98577.66
2019-04-10T22:25:31.909Z,98580.02
2019-04-10T22:27:39.915Z,98578.92
2019-04-10T22:29:47.595Z,98576.09
2019-04-10T22:31:55.272Z,98582.83
2019-04-10T22:34:03.164Z,98571.65
2019-04-10T22:36:11.017Z,98582.47
2019-04-10T22:38:19.407Z,98578.70
2019-04-10T22:40:27.430Z,98575.92
2019-04-10T22:42:41.661Z,98584.71
2019-04-10T22:44:46.475Z,98584.05
2019-04-10T22:46:54.450Z,98579.30
2019-04-10T22:49:02.408Z,98577.21
2019-04-10T22:51:11.156Z,98589.74
2019-04-10T22:53:19.389Z,98581.52
2019-04-10T22:55:28.128Z,98579.22
2019-04-10T22:57:39.777Z,98582.62
2019-04-10T22:59:46.863Z,98581.70
2019-04-10T23:02:02.180Z,98585.79
2019-04-10T23:04:05.873Z,98592.97
2019-04-10T23:06:13.882Z,98596.23
2019-04-10T23:08:21.876Z,98583.50
2019-04-10T23:10:29.861Z,98583.08
2019-04-10T23:12:49.718Z,98584.60
2019-04-10T23:14:47.205Z,98581.01
2019-04-10T23:16:54.954Z,98592.66
2019-04-10T23:19:03.639Z,98583.63
2019-04-10T23:21:12.342Z,98587.22
2019-04-10T23:23:21.185Z,98578.95
2019-04-10T23:25:29.081Z,98585.82
2019-04-10T23:27:37.749Z,98585.70
2019-04-10T23:29:46.577Z,98584.94
2019-04-10T23:31:54.549Z,98585.61
2019-04-10T23:34:02.427Z,98591.86
2019-04-10T23:36:10.183Z,98583.63
2019-04-10T23:38:18.056Z,98580.39
2019-04-10T23:40:25.835Z,98574.87
2019-04-10T23:42:33.673Z,98586.41
2019-04-10T23:44:42.911Z,98582.11
2019-04-10T23:46:51.676Z,98583.00
2019-04-10T23:48:59.598Z,98594.94
2019-04-10T23:51:07.392Z,98594.56
2019-04-10T23:53:16.180Z,98598.14
2019-04-10T23:55:24.171Z,98599.78
2019-04-10T23:57:31.971Z,98599.75
2019-04-10T23:59:39.917Z,98590.78
